Maasdam — PFRO — position and weather

sailwx.info

Track history (hours):
 
Tides and Currents Weather Stations Pressure Air Temp Water Temp Dewpoint Dewpoint Depression Visibility Wind Speed Wind Dir Waves Ship Positions

Maasdam

Operator: Holland America Line

Last reported at 2018-Jan-20 06:50 UTC. Time now 2018-Jan-20 07:28 UTC.
Position S 38°04' E 144°55'.

MMSI: 244958000.

Date/timePositionNaut miles runAvg speedWind from/ knotsBaromVisibWave heightAir tempDewpointWater temp
2018-Jan-20 06:50S 38°04' E 144°55'617.0
2018-Jan-20 06:30S 37°59' E 144°55'713.4
2018-Jan-20 06:00S 37°52' E 144°56'1 2.2
2018-Jan-20 05:26S 37°51' E 144°56'0 0.0
2018-Jan-20 04:50S 37°51' E 144°56'0 0.0
2018-Jan-20 04:23S 37°51' E 144°56'0 0.0
2018-Jan-20 03:59S 37°51' E 144°56'0 0.0
2018-Jan-20 03:26S 37°51' E 144°56'0 0.0
2018-Jan-20 02:56S 37°51' E 144°56'0 0.0
2018-Jan-20 01:56S 37°51' E 144°56'0 0.0
2018-Jan-20 01:23S 37°51' E 144°56'0 0.0
2018-Jan-19 21:47S 37°51' E 144°56'0 0.0
2018-Jan-19 21:17S 37°51' E 144°56'0 0.0
2018-Jan-19 20:53S 37°51' E 144°56'0 0.3
2018-Jan-19 20:30S 37°51' E 144°56'2 4.5
2018-Jan-19 20:00S 37°53' E 144°56'713.5
2018-Jan-19 19:30S 37°60' E 144°55'816.4
2018-Jan-19 19:00S 38°08' E 144°55'1610.9
2018-Jan-19 17:31S 38°17' E 144°38'019.0
2018-Jan-19 17:30S 38°17' E 144°38'1511.3
2018-Jan-19 16:13S 38°32' E 144°43'315.8
2018-Jan-19 16:00S 38°34' E 144°46'1016.5
2018-Jan-19 15:26S 38°39' E 144°56'4 9.0
2018-Jan-19 15:00S 38°36' E 145°00'8212.2 200 / 231012.510.8 19.017.422.0
2018-Jan-19 14:57S 38°43' E 145°05'816.2
2018-Jan-19 14:28S 38°47' E 145°14'916.2
2018-Jan-19 13:54S 38°51' E 145°24'716.3
2018-Jan-19 13:30S 38°54' E 145°31'816.0
2018-Jan-19 13:00S 38°58' E 145°40'916.6
2018-Jan-19 12:27S 39°02' E 145°51'716.3
2018-Jan-19 12:00S 39°06' E 145°58'816.3
2018-Jan-19 11:30S 39°11' E 146°07'816.1
2018-Jan-19 11:00S 39°12' E 146°18'1116.7
2018-Jan-19 10:20S 39°08' E 146°32'516.5
2018-Jan-19 10:00S 39°07' E 146°38'1316.3
2018-Jan-19 09:12S 39°03' E 146°54'516.8
2018-Jan-19 08:55S 39°01' E 147°00'717.1
2018-Jan-19 08:30S 38°59' E 147°08'817.0
2018-Jan-19 08:01S 38°56' E 147°19'816.7
2018-Jan-19 07:30S 38°53' E 147°29'816.1
2018-Jan-19 07:00S 38°52' E 147°39'816.1
2018-Jan-19 06:30S 38°50' E 147°49'816.2
2018-Jan-19 06:00S 38°48' E 147°59'816.4
2018-Jan-19 05:30S 38°45' E 148°09'816.0
2018-Jan-19 05:00S 38°40' E 148°17'816.7
2018-Jan-19 04:30S 38°34' E 148°25'816.3
2018-Jan-19 04:00S 38°29' E 148°33'816.2
2018-Jan-19 03:30S 38°25' E 148°42'816.0
2018-Jan-19 03:01S 38°21' E 148°51'4916.1
2018-Jan-19 00:00S 37°54' E 149°42'623.2 360 / 121012.510.8 20.418.522.0
2018-Jan-18 23:45S 37°55' E 149°49'816.6
2018-Jan-18 23:17S 37°51' E 149°57'616.8
2018-Jan-18 22:55S 37°47' E 150°03'716.6
2018-Jan-18 22:30S 37°41' E 150°07'916.4
2018-Jan-18 21:59S 37°33' E 150°11'715.4
2018-Jan-18 21:30S 37°26' E 150°14'815.6
2018-Jan-18 21:00S 37°20' E 150°21'917.6
2018-Jan-18 20:31S 37°12' E 150°25'1618.1
2018-Jan-18 19:36S 36°56' E 150°30'218.2
2018-Jan-18 19:30S 36°54' E 150°31'2718.3
2018-Jan-18 18:03S 36°29' E 150°39'718.7
2018-Jan-18 17:40S 36°22' E 150°42'318.6
2018-Jan-18 17:29S 36°18' E 150°43'918.4
2018-Jan-18 17:01S 36°10' E 150°46'918.6
2018-Jan-18 16:31S 36°01' E 150°49'918.4
2018-Jan-18 16:01S 35°52' E 150°52'918.4
2018-Jan-18 15:31S 35°43' E 150°55'918.4
2018-Jan-18 15:00S 35°35' E 150°58'918.0
2018-Jan-18 14:30S 35°26' E 151°01'918.0
2018-Jan-18 14:00S 35°17' E 151°04'6467.3
2018-Jan-18 14:00S 35°12' E 151°00'714.3 030 / 91017.010.8 20.418.822.4
2018-Jan-18 13:31S 35°09' E 151°07'918.0
2018-Jan-18 13:00S 34°60' E 151°09'917.9
2018-Jan-18 12:31S 34°51' E 151°12'917.9
2018-Jan-18 12:00S 34°42' E 151°15'917.9
2018-Jan-18 11:30S 34°34' E 151°18'918.4
2018-Jan-18 11:00S 34°25' E 151°21'918.7
2018-Jan-18 10:30S 34°16' E 151°24'918.6
2018-Jan-18 10:00S 34°07' E 151°27'918.2
2018-Jan-18 09:30S 33°58' E 151°25'816.0
2018-Jan-18 09:00S 33°51' E 151°20'4 8.0
2018-Jan-18 08:31S 33°51' E 151°15'2 3.7
2018-Jan-18 07:58S 33°52' E 151°13'0 0.0
2018-Jan-18 07:28S 33°52' E 151°13'0 0.0
2018-Jan-18 06:55S 33°52' E 151°13'0 0.0
2018-Jan-18 06:28S 33°52' E 151°13'116 7.1
2018-Jan-17 14:00S 35°48' E 151°12'26 8.6 220 / 61019.110.8 19.515.322.0
2018-Jan-17 11:00S 35°24' E 151°00'3215.8 170 / 41019.510.8 18.813.422.0
2018-Jan-17 09:00S 35°54' E 150°48'5025.1 150 / 111019.510.8 18.813.422.0
2018-Jan-17 07:00S 36°42' E 150°30'7214.4 150 / 171007.510.8 18.813.422.0
2018-Jan-17 02:00S 37°48' E 149°54'3433.6 180 / 111020.510.8 18.814.322.0
2018-Jan-17 01:00S 38°06' E 149°18'213 6.1 180 / 81020.510.8 16.814.022.0
2018-Jan-15 14:00S 39°00' E 144°54'5117.2 060 / 131022.210.8 17.014.420.0
2018-Jan-15 11:00S 39°48' E 145°18'88 4.6 180 / 121021.410.8 16.813.321.0
2018-Jan-14 16:00S 40°48' E 146°42'1514.9 250 / 301014.510.8 16.012.421.0
2018-Jan-14 15:00S 40°42' E 147°00'1514.9 240 / 301014.510.8 16.012.421.0
2018-Jan-14 14:00S 40°36' E 147°18'5914.9 240 / 301014.510.8 16.012.421.0
2018-Jan-14 10:00S 40°42' E 148°36'71316.6 270 / 191014.310.8 17.011.521.0
2018-Jan-12 15:00S 43°48' E 164°06'1818.3 080 / 201010.310.8 17.515.819.0
2018-Jan-12 14:00S 43°54' E 164°30'1414.3 080 / 151011.410.8 17.515.820.0
2018-Jan-12 13:00S 44°00' E 164°48'1717.3 090 / 151011.910.8 17.515.820.0
2018-Jan-12 12:00S 44°00' E 165°12'6716.8 090 / 121012.510.8 17.515.820.0
2018-Jan-12 08:00S 44°18' E 166°42'3618.2 160 / 141013.010.8 18.515.120.0
2018-Jan-12 06:00S 44°30' E 167°30'100 7.5 200 / 121012.810.8 19.015.619.0
2018-Jan-11 16:41S 45°51' E 166°06'210.1
2018-Jan-11 16:28S 45°53' E 166°06'13 9.7
2018-Jan-11 15:07S 46°06' E 166°06'0 2.4
2018-Jan-11 15:00S 46°06' E 166°06'245.6 120 / 321016.010.8 14.511.716.0
2018-Jan-11 14:57S 46°08' E 166°08'1110.1
2018-Jan-11 13:49S 46°17' E 166°17'310.2
2018-Jan-11 13:30S 46°19' E 166°20'3 5.6
2018-Jan-11 13:00S 46°18' E 166°24'5493.1 120 / 261018.710.8 14.511.717.0
2018-Jan-11 12:59S 46°22' E 166°26'5 9.5
2018-Jan-11 12:30S 46°25' E 166°31'3 6.7
2018-Jan-11 12:00S 46°24' E 166°36'370.4 130 / 251019.010.8 14.511.718.0
2018-Jan-11 11:57S 46°27' E 166°39'4 9.7
2018-Jan-11 11:29S 46°28' E 166°45'5 9.7
2018-Jan-11 11:00S 46°29' E 166°51'5 9.5
2018-Jan-11 10:30S 46°30' E 166°58'5 9.7
2018-Jan-11 10:00S 46°31' E 167°05'510.2
2018-Jan-11 09:30S 46°32' E 167°12'5 9.8
2018-Jan-11 09:00S 46°33' E 167°19'5 9.8
2018-Jan-11 08:30S 46°34' E 167°26'5 9.6
2018-Jan-11 08:00S 46°35' E 167°33'5327.0
2018-Jan-11 08:00S 46°30' E 167°30'918.1 120 / 281019.010.8 14.212.918.0
2018-Jan-11 07:30S 46°36' E 167°40'5 9.6
2018-Jan-11 07:00S 46°36' E 167°47'3215.1
2018-Jan-11 07:00S 46°36' E 167°42'816.5 130 / 301018.510.8 14.211.018.0
2018-Jan-11 06:30S 46°37' E 167°53'5 9.5
2018-Jan-11 06:00S 46°39' E 168°00'4 8.7
2018-Jan-11 05:30S 46°41' E 168°06'5 9.2
2018-Jan-11 05:00S 46°45' E 168°08'5 9.3
2018-Jan-11 04:30S 46°49' E 168°11'3 7.9
2018-Jan-11 04:04S 46°53' E 168°10'0 1.6
2018-Jan-11 04:00S 46°53' E 168°10'010.5
2018-Jan-11 03:59S 46°53' E 168°10'0 0.2
2018-Jan-11 03:30S 46°53' E 168°10'013.0
2018-Jan-11 03:30S 46°53' E 168°10'0 0.2
2018-Jan-11 03:00S 46°53' E 168°10'0 1.7
2018-Jan-11 02:43S 46°53' E 168°09'0 2.4
2018-Jan-11 02:30S 46°53' E 168°10'0 0.4
2018-Jan-11 02:22S 46°53' E 168°10'218.7
2018-Jan-11 02:17S 46°54' E 168°08'2 5.8
2018-Jan-11 02:00S 46°53' E 168°10'0 0.3
2018-Jan-11 01:49S 46°53' E 168°10'0 0.2
2018-Jan-11 01:30S 46°53' E 168°10'1 4.4
2018-Jan-11 01:19S 46°53' E 168°09'1 2.7
2018-Jan-11 01:00S 46°53' E 168°10'1 4.3
2018-Jan-11 00:53S 46°53' E 168°09'0 4.8
2018-Jan-11 00:51S 46°53' E 168°09'1 2.0
2018-Jan-11 00:30S 46°53' E 168°10'124.9
2018-Jan-11 00:28S 46°54' E 168°09'116.6
2018-Jan-11 00:24S 46°53' E 168°10'0 0.1
2018-Jan-11 00:00S 46°53' E 168°10'1 4.5
2018-Jan-10 23:53S 46°53' E 168°09'0 2.8
2018-Jan-10 23:47S 46°53' E 168°09'0 0.9
2018-Jan-10 23:30S 46°53' E 168°09'1284.3
2018-Jan-10 23:30S 46°53' E 168°10'221.1
2018-Jan-10 23:26S 46°54' E 168°08'1 1.8
2018-Jan-10 23:00S 46°53' E 168°09'11561.7
2018-Jan-10 23:00S 46°53' E 168°10'1 8.7
2018-Jan-10 22:55S 46°53' E 168°09'1 2.0
2018-Jan-10 22:30S 46°53' E 168°10'014.9
2018-Jan-10 22:28S 46°53' E 168°09'091.6
2018-Jan-10 22:28S 46°53' E 168°10'0 0.4
2018-Jan-10 22:00S 46°53' E 168°10'229.1
2018-Jan-10 21:57S 46°54' E 168°08'213.6
2018-Jan-10 21:50S 46°53' E 168°10'0 0.1
2018-Jan-10 21:30S 46°53' E 168°10'1 2.7
2018-Jan-10 21:18S 46°53' E 168°09'1 1.9
2018-Jan-10 21:00S 46°53' E 168°10'0 0.0
2018-Jan-10 20:30S 46°53' E 168°10'0 0.0
2018-Jan-10 20:00S 46°53' E 168°10'0 0.0
2018-Jan-10 19:30S 46°53' E 168°10'0 1.1
2018-Jan-10 19:13S 46°53' E 168°10'0 1.4
2018-Jan-10 19:00S 46°53' E 168°10'0 0.4
2018-Jan-10 18:52S 46°53' E 168°10'0 0.1
2018-Jan-10 18:30S 46°53' E 168°10'0 0.4
2018-Jan-10 18:22S 46°53' E 168°10'0 0.2
2018-Jan-10 18:00S 46°53' E 168°10'027.1
2018-Jan-10 18:00S 46°53' E 168°10'1 1.3
2018-Jan-10 17:30S 46°53' E 168°11'713.2
2018-Jan-10 17:00S 46°46' E 168°11'815.7
2018-Jan-10 16:30S 46°41' E 168°20'5 9.7
2018-Jan-10 16:00S 46°41' E 168°27'611.8
2018-Jan-10 15:30S 46°41' E 168°36'612.5
2018-Jan-10 15:00S 46°42' E 168°45'612.6
2018-Jan-10 14:30S 46°44' E 168°53'612.9
2018-Jan-10 14:00S 46°47' E 169°02'5304.5
2018-Jan-10 14:00S 46°42' E 169°00'817.0 090 / 181019.010.8 14.012.216.0
2018-Jan-10 13:30S 46°45' E 169°11'612.5
2018-Jan-10 13:00S 46°44' E 169°20'2118.8
2018-Jan-10 13:00S 46°42' E 169°18'714.7 090 / 121019.010.8 14.012.216.0
2018-Jan-10 12:30S 46°42' E 169°28'612.2
2018-Jan-10 12:00S 46°41' E 169°37'5320.7
2018-Jan-10 12:00S 46°36' E 169°36'816.4 090 / 121019.010.8 14.012.216.0
2018-Jan-10 11:30S 46°40' E 169°46'612.2
2018-Jan-10 11:00S 46°39' E 169°55'611.5
2018-Jan-10 10:30S 46°38' E 170°03'611.6
2018-Jan-10 10:00S 46°33' E 170°06'611.8
2018-Jan-10 09:30S 46°28' E 170°13'611.7
2018-Jan-10 09:00S 46°24' E 170°18'611.8
2018-Jan-10 08:30S 46°20' E 170°24'611.9
2018-Jan-10 08:00S 46°16' E 170°30'4226.3
2018-Jan-10 08:00S 46°12' E 170°30'4 8.4 080 / 121018.210.8 16.012.416.0
2018-Jan-10 07:30S 46°11' E 170°36'611.7
2018-Jan-10 07:00S 46°07' E 170°41'  
Track history (hours):
 
Tides and Currents Weather Stations Pressure Air Temp Water Temp Dewpoint Dewpoint Depression Visibility Wind Speed Wind Dir Waves Ship Positions

Maasdam

Operator: Holland America Line

Last reported at 2018-Jan-20 06:50 UTC. Time now 2018-Jan-20 07:28 UTC.
Position S 38°04' E 144°55'.

MMSI: 244958000.

Date/timePositionNaut miles runAvg speedWind from/ knotsBaromVisibWave heightAir tempDewpointWater temp
2018-Jan-20 06:50S 38°04' E 144°55'617.0
2018-Jan-20 06:30S 37°59' E 144°55'713.4
2018-Jan-20 06:00S 37°52' E 144°56'1 2.2
2018-Jan-20 05:26S 37°51' E 144°56'0 0.0
2018-Jan-20 04:50S 37°51' E 144°56'0 0.0
2018-Jan-20 04:23S 37°51' E 144°56'0 0.0
2018-Jan-20 03:59S 37°51' E 144°56'0 0.0
2018-Jan-20 03:26S 37°51' E 144°56'0 0.0
2018-Jan-20 02:56S 37°51' E 144°56'0 0.0
2018-Jan-20 01:56S 37°51' E 144°56'0 0.0
2018-Jan-20 01:23S 37°51' E 144°56'0 0.0
2018-Jan-19 21:47S 37°51' E 144°56'0 0.0
2018-Jan-19 21:17S 37°51' E 144°56'0 0.0
2018-Jan-19 20:53S 37°51' E 144°56'0 0.3
2018-Jan-19 20:30S 37°51' E 144°56'2 4.5
2018-Jan-19 20:00S 37°53' E 144°56'713.5
2018-Jan-19 19:30S 37°60' E 144°55'816.4
2018-Jan-19 19:00S 38°08' E 144°55'1610.9
2018-Jan-19 17:31S 38°17' E 144°38'019.0
2018-Jan-19 17:30S 38°17' E 144°38'1511.3
2018-Jan-19 16:13S 38°32' E 144°43'315.8
2018-Jan-19 16:00S 38°34' E 144°46'1016.5
2018-Jan-19 15:26S 38°39' E 144°56'4 9.0
2018-Jan-19 15:00S 38°36' E 145°00'8212.2 200 / 231012.510.8 19.017.422.0
2018-Jan-19 14:57S 38°43' E 145°05'816.2
2018-Jan-19 14:28S 38°47' E 145°14'916.2
2018-Jan-19 13:54S 38°51' E 145°24'716.3
2018-Jan-19 13:30S 38°54' E 145°31'816.0
2018-Jan-19 13:00S 38°58' E 145°40'916.6
2018-Jan-19 12:27S 39°02' E 145°51'716.3
2018-Jan-19 12:00S 39°06' E 145°58'816.3
2018-Jan-19 11:30S 39°11' E 146°07'816.1
2018-Jan-19 11:00S 39°12' E 146°18'1116.7
2018-Jan-19 10:20S 39°08' E 146°32'516.5
2018-Jan-19 10:00S 39°07' E 146°38'1316.3
2018-Jan-19 09:12S 39°03' E 146°54'516.8
2018-Jan-19 08:55S 39°01' E 147°00'717.1
2018-Jan-19 08:30S 38°59' E 147°08'817.0
2018-Jan-19 08:01S 38°56' E 147°19'816.7
2018-Jan-19 07:30S 38°53' E 147°29'816.1
2018-Jan-19 07:00S 38°52' E 147°39'816.1
2018-Jan-19 06:30S 38°50' E 147°49'816.2
2018-Jan-19 06:00S 38°48' E 147°59'816.4
2018-Jan-19 05:30S 38°45' E 148°09'816.0
2018-Jan-19 05:00S 38°40' E 148°17'816.7
2018-Jan-19 04:30S 38°34' E 148°25'816.3
2018-Jan-19 04:00S 38°29' E 148°33'816.2
2018-Jan-19 03:30S 38°25' E 148°42'816.0
2018-Jan-19 03:01S 38°21' E 148°51'4916.1
2018-Jan-19 00:00S 37°54' E 149°42'623.2 360 / 121012.510.8 20.418.522.0
2018-Jan-18 23:45S 37°55' E 149°49'816.6
2018-Jan-18 23:17S 37°51' E 149°57'616.8
2018-Jan-18 22:55S 37°47' E 150°03'716.6
2018-Jan-18 22:30S 37°41' E 150°07'916.4
2018-Jan-18 21:59S 37°33' E 150°11'715.4
2018-Jan-18 21:30S 37°26' E 150°14'815.6
2018-Jan-18 21:00S 37°20' E 150°21'917.6
2018-Jan-18 20:31S 37°12' E 150°25'1618.1
2018-Jan-18 19:36S 36°56' E 150°30'218.2
2018-Jan-18 19:30S 36°54' E 150°31'2718.3
2018-Jan-18 18:03S 36°29' E 150°39'718.7
2018-Jan-18 17:40S 36°22' E 150°42'318.6
2018-Jan-18 17:29S 36°18' E 150°43'918.4
2018-Jan-18 17:01S 36°10' E 150°46'918.6
2018-Jan-18 16:31S 36°01' E 150°49'918.4
2018-Jan-18 16:01S 35°52' E 150°52'918.4
2018-Jan-18 15:31S 35°43' E 150°55'918.4
2018-Jan-18 15:00S 35°35' E 150°58'918.0
2018-Jan-18 14:30S 35°26' E 151°01'918.0
2018-Jan-18 14:00S 35°17' E 151°04'6467.3
2018-Jan-18 14:00S 35°12' E 151°00'714.3 030 / 91017.010.8 20.418.822.4
2018-Jan-18 13:31S 35°09' E 151°07'918.0
2018-Jan-18 13:00S 34°60' E 151°09'917.9
2018-Jan-18 12:31S 34°51' E 151°12'917.9
2018-Jan-18 12:00S 34°42' E 151°15'917.9
2018-Jan-18 11:30S 34°34' E 151°18'918.4
2018-Jan-18 11:00S 34°25' E 151°21'918.7
2018-Jan-18 10:30S 34°16' E 151°24'918.6
2018-Jan-18 10:00S 34°07' E 151°27'918.2
2018-Jan-18 09:30S 33°58' E 151°25'816.0
2018-Jan-18 09:00S 33°51' E 151°20'4 8.0
2018-Jan-18 08:31S 33°51' E 151°15'2 3.7
2018-Jan-18 07:58S 33°52' E 151°13'0 0.0
2018-Jan-18 07:28S 33°52' E 151°13'0 0.0
2018-Jan-18 06:55S 33°52' E 151°13'0 0.0
2018-Jan-18 06:28S 33°52' E 151°13'116 7.1
2018-Jan-17 14:00S 35°48' E 151°12'26 8.6 220 / 61019.110.8 19.515.322.0
2018-Jan-17 11:00S 35°24' E 151°00'3215.8 170 / 41019.510.8 18.813.422.0
2018-Jan-17 09:00S 35°54' E 150°48'5025.1 150 / 111019.510.8 18.813.422.0
2018-Jan-17 07:00S 36°42' E 150°30'7214.4 150 / 171007.510.8 18.813.422.0
2018-Jan-17 02:00S 37°48' E 149°54'3433.6 180 / 111020.510.8 18.814.322.0
2018-Jan-17 01:00S 38°06' E 149°18'213 6.1 180 / 81020.510.8 16.814.022.0
2018-Jan-15 14:00S 39°00' E 144°54'5117.2 060 / 131022.210.8 17.014.420.0
2018-Jan-15 11:00S 39°48' E 145°18'88 4.6 180 / 121021.410.8 16.813.321.0
2018-Jan-14 16:00S 40°48' E 146°42'1514.9 250 / 301014.510.8 16.012.421.0
2018-Jan-14 15:00S 40°42' E 147°00'1514.9 240 / 301014.510.8 16.012.421.0
2018-Jan-14 14:00S 40°36' E 147°18'5914.9 240 / 301014.510.8 16.012.421.0
2018-Jan-14 10:00S 40°42' E 148°36'71316.6 270 / 191014.310.8 17.011.521.0
2018-Jan-12 15:00S 43°48' E 164°06'1818.3 080 / 201010.310.8 17.515.819.0
2018-Jan-12 14:00S 43°54' E 164°30'1414.3 080 / 151011.410.8 17.515.820.0
2018-Jan-12 13:00S 44°00' E 164°48'1717.3 090 / 151011.910.8 17.515.820.0
2018-Jan-12 12:00S 44°00' E 165°12'6716.8 090 / 121012.510.8 17.515.820.0
2018-Jan-12 08:00S 44°18' E 166°42'3618.2 160 / 141013.010.8 18.515.120.0
2018-Jan-12 06:00S 44°30' E 167°30'100 7.5 200 / 121012.810.8 19.015.619.0
2018-Jan-11 16:41S 45°51' E 166°06'210.1
2018-Jan-11 16:28S 45°53' E 166°06'13 9.7
2018-Jan-11 15:07S 46°06' E 166°06'0 2.4
2018-Jan-11 15:00S 46°06' E 166°06'245.6 120 / 321016.010.8 14.511.716.0
2018-Jan-11 14:57S 46°08' E 166°08'1110.1
2018-Jan-11 13:49S 46°17' E 166°17'310.2
2018-Jan-11 13:30S 46°19' E 166°20'3 5.6
2018-Jan-11 13:00S 46°18' E 166°24'5493.1 120 / 261018.710.8 14.511.717.0
2018-Jan-11 12:59S 46°22' E 166°26'5 9.5
2018-Jan-11 12:30S 46°25' E 166°31'3 6.7
2018-Jan-11 12:00S 46°24' E 166°36'370.4 130 / 251019.010.8 14.511.718.0
2018-Jan-11 11:57S 46°27' E 166°39'4 9.7
2018-Jan-11 11:29S 46°28' E 166°45'5 9.7
2018-Jan-11 11:00S 46°29' E 166°51'5 9.5
2018-Jan-11 10:30S 46°30' E 166°58'5 9.7
2018-Jan-11 10:00S 46°31' E 167°05'510.2
2018-Jan-11 09:30S 46°32' E 167°12'5 9.8
2018-Jan-11 09:00S 46°33' E 167°19'5 9.8
2018-Jan-11 08:30S 46°34' E 167°26'5 9.6
2018-Jan-11 08:00S 46°35' E 167°33'5327.0
2018-Jan-11 08:00S 46°30' E 167°30'918.1 120 / 281019.010.8 14.212.918.0
2018-Jan-11 07:30S 46°36' E 167°40'5 9.6
2018-Jan-11 07:00S 46°36' E 167°47'3215.1
2018-Jan-11 07:00S 46°36' E 167°42'816.5 130 / 301018.510.8 14.211.018.0
2018-Jan-11 06:30S 46°37' E 167°53'5 9.5
2018-Jan-11 06:00S 46°39' E 168°00'4 8.7
2018-Jan-11 05:30S 46°41' E 168°06'5 9.2
2018-Jan-11 05:00S 46°45' E 168°08'5 9.3
2018-Jan-11 04:30S 46°49' E 168°11'3 7.9
2018-Jan-11 04:04S 46°53' E 168°10'0 1.6
2018-Jan-11 04:00S 46°53' E 168°10'010.5
2018-Jan-11 03:59S 46°53' E 168°10'0 0.2
2018-Jan-11 03:30S 46°53' E 168°10'013.0
2018-Jan-11 03:30S 46°53' E 168°10'0 0.2
2018-Jan-11 03:00S 46°53' E 168°10'0 1.7
2018-Jan-11 02:43S 46°53' E 168°09'0 2.4
2018-Jan-11 02:30S 46°53' E 168°10'0 0.4
2018-Jan-11 02:22S 46°53' E 168°10'218.7
2018-Jan-11 02:17S 46°54' E 168°08'2 5.8
2018-Jan-11 02:00S 46°53' E 168°10'0 0.3
2018-Jan-11 01:49S 46°53' E 168°10'0 0.2
2018-Jan-11 01:30S 46°53' E 168°10'1 4.4
2018-Jan-11 01:19S 46°53' E 168°09'1 2.7
2018-Jan-11 01:00S 46°53' E 168°10'1 4.3
2018-Jan-11 00:53S 46°53' E 168°09'0 4.8
2018-Jan-11 00:51S 46°53' E 168°09'1 2.0
2018-Jan-11 00:30S 46°53' E 168°10'124.9
2018-Jan-11 00:28S 46°54' E 168°09'116.6
2018-Jan-11 00:24S 46°53' E 168°10'0 0.1
2018-Jan-11 00:00S 46°53' E 168°10'1 4.5
2018-Jan-10 23:53S 46°53' E 168°09'0 2.8
2018-Jan-10 23:47S 46°53' E 168°09'0 0.9
2018-Jan-10 23:30S 46°53' E 168°09'1284.3
2018-Jan-10 23:30S 46°53' E 168°10'221.1
2018-Jan-10 23:26S 46°54' E 168°08'1 1.8
2018-Jan-10 23:00S 46°53' E 168°09'11561.7
2018-Jan-10 23:00S 46°53' E 168°10'1 8.7
2018-Jan-10 22:55S 46°53' E 168°09'1 2.0
2018-Jan-10 22:30S 46°53' E 168°10'014.9
2018-Jan-10 22:28S 46°53' E 168°09'091.6
2018-Jan-10 22:28S 46°53' E 168°10'0 0.4
2018-Jan-10 22:00S 46°53' E 168°10'229.1
2018-Jan-10 21:57S 46°54' E 168°08'213.6
2018-Jan-10 21:50S 46°53' E 168°10'0 0.1
2018-Jan-10 21:30S 46°53' E 168°10'1 2.7
2018-Jan-10 21:18S 46°53' E 168°09'1 1.9
2018-Jan-10 21:00S 46°53' E 168°10'0 0.0
2018-Jan-10 20:30S 46°53' E 168°10'0 0.0
2018-Jan-10 20:00S 46°53' E 168°10'0 0.0
2018-Jan-10 19:30S 46°53' E 168°10'0 1.1
2018-Jan-10 19:13S 46°53' E 168°10'0 1.4
2018-Jan-10 19:00S 46°53' E 168°10'0 0.4
2018-Jan-10 18:52S 46°53' E 168°10'0 0.1
2018-Jan-10 18:30S 46°53' E 168°10'0 0.4
2018-Jan-10 18:22S 46°53' E 168°10'0 0.2
2018-Jan-10 18:00S 46°53' E 168°10'027.1
2018-Jan-10 18:00S 46°53' E 168°10'1 1.3
2018-Jan-10 17:30S 46°53' E 168°11'713.2
2018-Jan-10 17:00S 46°46' E 168°11'815.7
2018-Jan-10 16:30S 46°41' E 168°20'5 9.7
2018-Jan-10 16:00S 46°41' E 168°27'611.8
2018-Jan-10 15:30S 46°41' E 168°36'612.5
2018-Jan-10 15:00S 46°42' E 168°45'612.6
2018-Jan-10 14:30S 46°44' E 168°53'612.9
2018-Jan-10 14:00S 46°47' E 169°02'5304.5
2018-Jan-10 14:00S 46°42' E 169°00'817.0 090 / 181019.010.8 14.012.216.0
2018-Jan-10 13:30S 46°45' E 169°11'612.5
2018-Jan-10 13:00S 46°44' E 169°20'2118.8
2018-Jan-10 13:00S 46°42' E 169°18'714.7 090 / 121019.010.8 14.012.216.0
2018-Jan-10 12:30S 46°42' E 169°28'612.2
2018-Jan-10 12:00S 46°41' E 169°37'5320.7
2018-Jan-10 12:00S 46°36' E 169°36'816.4 090 / 121019.010.8 14.012.216.0
2018-Jan-10 11:30S 46°40' E 169°46'612.2
2018-Jan-10 11:00S 46°39' E 169°55'611.5
2018-Jan-10 10:30S 46°38' E 170°03'611.6
2018-Jan-10 10:00S 46°33' E 170°06'611.8
2018-Jan-10 09:30S 46°28' E 170°13'611.7
2018-Jan-10 09:00S 46°24' E 170°18'611.8
2018-Jan-10 08:30S 46°20' E 170°24'611.9
2018-Jan-10 08:00S 46°16' E 170°30'4226.3
2018-Jan-10 08:00S 46°12' E 170°30'4 8.4 080 / 121018.210.8 16.012.416.0
2018-Jan-10 07:30S 46°11' E 170°36'611.7
2018-Jan-10 07:00S 46°07' E 170°41'  

Dump ship's entire track history